sensor_id;sensor_type;location;lat;lon;timestamp;P1;durP1;ratioP1;P2;durP2;ratioP2
32808;SDS011;19159;48.178;16.386;2023-11-22T00:01:52;6.72;;;6.00;;
32808;SDS011;19159;48.178;16.386;2023-11-22T00:04:18;8.30;;;6.15;;
32808;SDS011;19159;48.178;16.386;2023-11-22T00:06:45;8.02;;;6.80;;
32808;SDS011;19159;48.178;16.386;2023-11-22T00:09:10;10.50;;;7.68;;
32808;SDS011;19159;48.178;16.386;2023-11-22T00:11:36;8.98;;;7.60;;
32808;SDS011;19159;48.178;16.386;2023-11-22T00:14:02;10.63;;;8.80;;
32808;SDS011;19159;48.178;16.386;2023-11-22T00:16:28;11.43;;;10.00;;
32808;SDS011;19159;48.178;16.386;2023-11-22T00:18:55;11.07;;;9.35;;
32808;SDS011;19159;48.178;16.386;2023-11-22T00:21:20;11.55;;;10.35;;
32808;SDS011;19159;48.178;16.386;2023-11-22T00:23:46;13.68;;;10.38;;
32808;SDS011;19159;48.178;16.386;2023-11-22T00:26:12;12.95;;;10.13;;
32808;SDS011;19159;48.178;16.386;2023-11-22T00:28:37;11.63;;;10.43;;
32808;SDS011;19159;48.178;16.386;2023-11-22T00:31:03;12.45;;;11.18;;
32808;SDS011;19159;48.178;16.386;2023-11-22T00:33:28;11.25;;;9.88;;
32808;SDS011;19159;48.178;16.386;2023-11-22T00:35:56;11.63;;;10.48;;
32808;SDS011;19159;48.178;16.386;2023-11-22T00:38:23;11.85;;;10.65;;
32808;SDS011;19159;48.178;16.386;2023-11-22T00:40:49;12.23;;;10.95;;
32808;SDS011;19159;48.178;16.386;2023-11-22T00:43:15;11.57;;;10.55;;
32808;SDS011;19159;48.178;16.386;2023-11-22T00:45:40;12.25;;;11.05;;
32808;SDS011;19159;48.178;16.386;2023-11-22T00:48:06;12.00;;;10.80;;
32808;SDS011;19159;48.178;16.386;2023-11-22T00:50:32;11.65;;;10.55;;
32808;SDS011;19159;48.178;16.386;2023-11-22T00:52:58;12.02;;;10.93;;
32808;SDS011;19159;48.178;16.386;2023-11-22T00:55:23;12.07;;;10.88;;
32808;SDS011;19159;48.178;16.386;2023-11-22T00:57:49;12.30;;;11.10;;
32808;SDS011;19159;48.178;16.386;2023-11-22T01:00:15;12.07;;;10.88;;
32808;SDS011;19159;48.178;16.386;2023-11-22T01:02:41;12.68;;;11.48;;
32808;SDS011;19159;48.178;16.386;2023-11-22T01:05:07;11.90;;;10.70;;
32808;SDS011;19159;48.178;16.386;2023-11-22T01:07:36;11.85;;;10.68;;
32808;SDS011;19159;48.178;16.386;2023-11-22T01:10:02;10.80;;;9.68;;
32808;SDS011;19159;48.178;16.386;2023-11-22T01:12:29;9.23;;;8.32;;
32808;SDS011;19159;48.178;16.386;2023-11-22T01:14:55;10.00;;;8.98;;
32808;SDS011;19159;48.178;16.386;2023-11-22T01:17:20;9.43;;;8.43;;
32808;SDS011;19159;48.178;16.386;2023-11-22T01:19:46;8.48;;;7.68;;
32808;SDS011;19159;48.178;16.386;2023-11-22T01:22:11;7.75;;;7.05;;
32808;SDS011;19159;48.178;16.386;2023-11-22T01:24:37;9.43;;;7.28;;
32808;SDS011;19159;48.178;16.386;2023-11-22T01:27:03;7.05;;;6.35;;
32808;SDS011;19159;48.178;16.386;2023-11-22T01:29:30;8.32;;;7.10;;
32808;SDS011;19159;48.178;16.386;2023-11-22T01:31:55;7.15;;;6.45;;
32808;SDS011;19159;48.178;16.386;2023-11-22T01:34:21;7.35;;;6.65;;
32808;SDS011;19159;48.178;16.386;2023-11-22T01:36:49;6.35;;;5.75;;
32808;SDS011;19159;48.178;16.386;2023-11-22T01:39:15;6.47;;;5.88;;
32808;SDS011;19159;48.178;16.386;2023-11-22T01:41:41;6.55;;;5.65;;
32808;SDS011;19159;48.178;16.386;2023-11-22T01:44:09;6.57;;;5.90;;
32808;SDS011;19159;48.178;16.386;2023-11-22T01:46:35;5.93;;;5.32;;
32808;SDS011;19159;48.178;16.386;2023-11-22T01:49:00;5.82;;;5.22;;
32808;SDS011;19159;48.178;16.386;2023-11-22T01:51:26;6.15;;;5.13;;
32808;SDS011;19159;48.178;16.386;2023-11-22T01:53:53;6.20;;;5.47;;
32808;SDS011;19159;48.178;16.386;2023-11-22T01:56:24;6.13;;;5.05;;
32808;SDS011;19159;48.178;16.386;2023-11-22T01:58:51;6.53;;;5.82;;
32808;SDS011;19159;48.178;16.386;2023-11-22T02:01:19;7.47;;;5.00;;
32808;SDS011;19159;48.178;16.386;2023-11-22T02:03:45;5.93;;;5.32;;
32808;SDS011;19159;48.178;16.386;2023-11-22T02:06:17;5.75;;;4.90;;
32808;SDS011;19159;48.178;16.386;2023-11-22T02:08:43;6.68;;;5.22;;
32808;SDS011;19159;48.178;16.386;2023-11-22T02:11:09;6.60;;;5.40;;
32808;SDS011;19159;48.178;16.386;2023-11-22T02:13:35;5.72;;;5.07;;
32808;SDS011;19159;48.178;16.386;2023-11-22T02:16:01;5.28;;;4.40;;
32808;SDS011;19159;48.178;16.386;2023-11-22T02:18:28;5.15;;;4.65;;
32808;SDS011;19159;48.178;16.386;2023-11-22T02:20:54;5.38;;;4.70;;
32808;SDS011;19159;48.178;16.386;2023-11-22T02:23:19;5.32;;;4.82;;
32808;SDS011;19159;48.178;16.386;2023-11-22T02:25:45;6.10;;;5.32;;
32808;SDS011;19159;48.178;16.386;2023-11-22T02:28:11;5.93;;;4.45;;
32808;SDS011;19159;48.178;16.386;2023-11-22T02:30:37;5.40;;;4.90;;
32808;SDS011;19159;48.178;16.386;2023-11-22T02:33:03;5.40;;;4.90;;
32808;SDS011;19159;48.178;16.386;2023-11-22T02:35:29;5.43;;;4.72;;
32808;SDS011;19159;48.178;16.386;2023-11-22T02:37:57;6.25;;;4.60;;
32808;SDS011;19159;48.178;16.386;2023-11-22T02:40:23;5.00;;;4.53;;
32808;SDS011;19159;48.178;16.386;2023-11-22T02:42:50;5.63;;;5.13;;
32808;SDS011;19159;48.178;16.386;2023-11-22T02:45:18;5.25;;;4.75;;
32808;SDS011;19159;48.178;16.386;2023-11-22T02:47:47;6.30;;;4.63;;
32808;SDS011;19159;48.178;16.386;2023-11-22T02:50:14;5.10;;;4.53;;
32808;SDS011;19159;48.178;16.386;2023-11-22T02:52:40;5.32;;;4.82;;
32808;SDS011;19159;48.178;16.386;2023-11-22T02:55:06;7.97;;;5.00;;
32808;SDS011;19159;48.178;16.386;2023-11-22T02:57:34;5.93;;;4.55;;
32808;SDS011;19159;48.178;16.386;2023-11-22T03:00:01;5.40;;;4.90;;
32808;SDS011;19159;48.178;16.386;2023-11-22T03:02:29;5.05;;;4.43;;
32808;SDS011;19159;48.178;16.386;2023-11-22T03:04:55;7.03;;;4.53;;
32808;SDS011;19159;48.178;16.386;2023-11-22T03:07:20;5.50;;;5.00;;
32808;SDS011;19159;48.178;16.386;2023-11-22T03:09:46;4.65;;;4.25;;
32808;SDS011;19159;48.178;16.386;2023-11-22T03:12:12;5.75;;;4.88;;
32808;SDS011;19159;48.178;16.386;2023-11-22T03:14:39;4.95;;;4.45;;
32808;SDS011;19159;48.178;16.386;2023-11-22T03:17:05;5.15;;;4.65;;
32808;SDS011;19159;48.178;16.386;2023-11-22T03:19:31;4.88;;;4.47;;
32808;SDS011;19159;48.178;16.386;2023-11-22T03:21:59;6.30;;;4.50;;
32808;SDS011;19159;48.178;16.386;2023-11-22T03:24:25;5.95;;;4.60;;
32808;SDS011;19159;48.178;16.386;2023-11-22T03:26:50;4.43;;;4.03;;
32808;SDS011;19159;48.178;16.386;2023-11-22T03:29:17;4.68;;;4.25;;
32808;SDS011;19159;48.178;16.386;2023-11-22T03:31:43;4.53;;;4.13;;
32808;SDS011;19159;48.178;16.386;2023-11-22T03:34:09;4.70;;;4.28;;
32808;SDS011;19159;48.178;16.386;2023-11-22T03:36:35;5.55;;;4.32;;
32808;SDS011;19159;48.178;16.386;2023-11-22T03:39:01;5.90;;;4.50;;
32808;SDS011;19159;48.178;16.386;2023-11-22T03:41:27;4.78;;;4.18;;
32808;SDS011;19159;48.178;16.386;2023-11-22T03:43:53;4.75;;;4.30;;
32808;SDS011;19159;48.178;16.386;2023-11-22T03:46:18;4.63;;;4.10;;
32808;SDS011;19159;48.178;16.386;2023-11-22T03:48:44;4.43;;;4.03;;
32808;SDS011;19159;48.178;16.386;2023-11-22T03:51:10;4.75;;;4.18;;
32808;SDS011;19159;48.178;16.386;2023-11-22T03:53:36;5.18;;;4.20;;
32808;SDS011;19159;48.178;16.386;2023-11-22T03:56:02;5.15;;;3.97;;
32808;SDS011;19159;48.178;16.386;2023-11-22T03:58:27;4.70;;;4.30;;
32808;SDS011;19159;48.178;16.386;2023-11-22T04:00:53;5.50;;;4.25;;
32808;SDS011;19159;48.178;16.386;2023-11-22T04:03:18;4.85;;;4.40;;
32808;SDS011;19159;48.178;16.386;2023-11-22T04:05:44;4.47;;;4.07;;
32808;SDS011;19159;48.178;16.386;2023-11-22T04:08:10;4.53;;;4.13;;
32808;SDS011;19159;48.178;16.386;2023-11-22T04:10:36;6.28;;;4.68;;
32808;SDS011;19159;48.178;16.386;2023-11-22T04:13:01;5.15;;;4.70;;
32808;SDS011;19159;48.178;16.386;2023-11-22T04:15:27;5.30;;;4.80;;
32808;SDS011;19159;48.178;16.386;2023-11-22T04:17:52;5.72;;;5.18;;
32808;SDS011;19159;48.178;16.386;2023-11-22T04:20:21;5.30;;;4.80;;
32808;SDS011;19159;48.178;16.386;2023-11-22T04:22:46;5.82;;;5.07;;
32808;SDS011;19159;48.178;16.386;2023-11-22T04:25:12;5.75;;;4.82;;
32808;SDS011;19159;48.178;16.386;2023-11-22T04:27:41;5.68;;;5.10;;
32808;SDS011;19159;48.178;16.386;2023-11-22T04:30:07;6.15;;;5.55;;
32808;SDS011;19159;48.178;16.386;2023-11-22T04:32:38;5.72;;;5.00;;
32808;SDS011;19159;48.178;16.386;2023-11-22T04:35:04;5.55;;;5.03;;
32808;SDS011;19159;48.178;16.386;2023-11-22T04:37:31;6.45;;;5.78;;
32808;SDS011;19159;48.178;16.386;2023-11-22T04:39:57;5.65;;;5.15;;
32808;SDS011;19159;48.178;16.386;2023-11-22T04:42:23;6.07;;;5.47;;
32808;SDS011;19159;48.178;16.386;2023-11-22T04:44:49;6.78;;;5.30;;
32808;SDS011;19159;48.178;16.386;2023-11-22T04:47:15;7.05;;;5.63;;
32808;SDS011;19159;48.178;16.386;2023-11-22T04:49:40;6.93;;;6.18;;
32808;SDS011;19159;48.178;16.386;2023-11-22T04:52:06;6.53;;;5.40;;
32808;SDS011;19159;48.178;16.386;2023-11-22T04:54:32;6.20;;;5.65;;
32808;SDS011;19159;48.178;16.386;2023-11-22T04:56:59;6.22;;;5.63;;
32808;SDS011;19159;48.178;16.386;2023-11-22T04:59:24;6.35;;;5.75;;
32808;SDS011;19159;48.178;16.386;2023-11-22T05:01:50;6.72;;;5.88;;
32808;SDS011;19159;48.178;16.386;2023-11-22T05:04:16;6.15;;;5.55;;
32808;SDS011;19159;48.178;16.386;2023-11-22T05:06:43;6.40;;;5.80;;
32808;SDS011;19159;48.178;16.386;2023-11-22T05:09:09;6.65;;;5.57;;
32808;SDS011;19159;48.178;16.386;2023-11-22T05:11:36;6.10;;;5.50;;
32808;SDS011;19159;48.178;16.386;2023-11-22T05:14:01;6.60;;;5.90;;
32808;SDS011;19159;48.178;16.386;2023-11-22T05:16:27;7.50;;;6.70;;
32808;SDS011;19159;48.178;16.386;2023-11-22T05:18:53;7.55;;;5.90;;
32808;SDS011;19159;48.178;16.386;2023-11-22T05:21:18;6.85;;;6.13;;
32808;SDS011;19159;48.178;16.386;2023-11-22T05:23:44;6.70;;;6.10;;
32808;SDS011;19159;48.178;16.386;2023-11-22T05:26:09;7.07;;;6.20;;
32808;SDS011;19159;48.178;16.386;2023-11-22T05:28:35;6.43;;;5.82;;
32808;SDS011;19159;48.178;16.386;2023-11-22T05:31:01;6.65;;;5.95;;
32808;SDS011;19159;48.178;16.386;2023-11-22T05:33:26;7.30;;;6.60;;
32808;SDS011;19159;48.178;16.386;2023-11-22T05:35:52;8.30;;;7.50;;
32808;SDS011;19159;48.178;16.386;2023-11-22T05:38:18;8.55;;;5.85;;
32808;SDS011;19159;48.178;16.386;2023-11-22T05:40:44;7.28;;;6.40;;
32808;SDS011;19159;48.178;16.386;2023-11-22T05:43:10;7.13;;;6.30;;
32808;SDS011;19159;48.178;16.386;2023-11-22T05:45:36;7.65;;;5.78;;
32808;SDS011;19159;48.178;16.386;2023-11-22T05:48:01;7.45;;;5.85;;
32808;SDS011;19159;48.178;16.386;2023-11-22T05:50:27;6.72;;;6.03;;
32808;SDS011;19159;48.178;16.386;2023-11-22T05:52:52;7.03;;;6.32;;
32808;SDS011;19159;48.178;16.386;2023-11-22T05:55:18;8.57;;;6.07;;
32808;SDS011;19159;48.178;16.386;2023-11-22T05:57:44;7.78;;;6.00;;
32808;SDS011;19159;48.178;16.386;2023-11-22T06:00:10;7.85;;;6.00;;
32808;SDS011;19159;48.178;16.386;2023-11-22T06:02:36;7.63;;;5.57;;
32808;SDS011;19159;48.178;16.386;2023-11-22T06:05:02;9.25;;;5.88;;
32808;SDS011;19159;48.178;16.386;2023-11-22T06:07:28;7.10;;;6.40;;
32808;SDS011;19159;48.178;16.386;2023-11-22T06:09:54;6.07;;;5.47;;
32808;SDS011;19159;48.178;16.386;2023-11-22T06:12:20;7.65;;;6.45;;
32808;SDS011;19159;48.178;16.386;2023-11-22T06:14:46;6.43;;;5.72;;
32808;SDS011;19159;48.178;16.386;2023-11-22T06:17:12;8.50;;;6.07;;
32808;SDS011;19159;48.178;16.386;2023-11-22T06:19:39;6.93;;;5.80;;
32808;SDS011;19159;48.178;16.386;2023-11-22T06:22:06;9.25;;;6.10;;
32808;SDS011;19159;48.178;16.386;2023-11-22T06:24:32;6.78;;;5.90;;
32808;SDS011;19159;48.178;16.386;2023-11-22T06:26:58;6.50;;;5.90;;
32808;SDS011;19159;48.178;16.386;2023-11-22T06:29:24;6.90;;;5.40;;
32808;SDS011;19159;48.178;16.386;2023-11-22T06:31:49;6.82;;;6.13;;
32808;SDS011;19159;48.178;16.386;2023-11-22T06:34:15;6.68;;;5.97;;
32808;SDS011;19159;48.178;16.386;2023-11-22T06:36:41;6.22;;;5.63;;
32808;SDS011;19159;48.178;16.386;2023-11-22T06:39:06;6.93;;;5.95;;
32808;SDS011;19159;48.178;16.386;2023-11-22T06:41:34;6.88;;;5.75;;
32808;SDS011;19159;48.178;16.386;2023-11-22T06:43:59;6.93;;;5.82;;
32808;SDS011;19159;48.178;16.386;2023-11-22T06:46:25;6.40;;;5.38;;
32808;SDS011;19159;48.178;16.386;2023-11-22T06:48:51;7.47;;;5.65;;
32808;SDS011;19159;48.178;16.386;2023-11-22T06:51:16;11.13;;;5.70;;
32808;SDS011;19159;48.178;16.386;2023-11-22T06:53:43;5.57;;;5.07;;
32808;SDS011;19159;48.178;16.386;2023-11-22T06:56:10;6.57;;;5.32;;
32808;SDS011;19159;48.178;16.386;2023-11-22T06:58:36;6.25;;;5.65;;
32808;SDS011;19159;48.178;16.386;2023-11-22T07:01:02;6.93;;;5.47;;
32808;SDS011;19159;48.178;16.386;2023-11-22T07:03:27;6.35;;;5.75;;
32808;SDS011;19159;48.178;16.386;2023-11-22T07:05:53;6.15;;;5.43;;
32808;SDS011;19159;48.178;16.386;2023-11-22T07:08:18;7.15;;;5.45;;
32808;SDS011;19159;48.178;16.386;2023-11-22T07:10:45;6.72;;;5.88;;
32808;SDS011;19159;48.178;16.386;2023-11-22T07:13:11;6.45;;;5.50;;
32808;SDS011;19159;48.178;16.386;2023-11-22T07:15:37;7.03;;;5.13;;
32808;SDS011;19159;48.178;16.386;2023-11-22T07:18:04;13.23;;;5.53;;
32808;SDS011;19159;48.178;16.386;2023-11-22T07:20:30;7.07;;;6.32;;
32808;SDS011;19159;48.178;16.386;2023-11-22T07:22:56;8.85;;;6.45;;
32808;SDS011;19159;48.178;16.386;2023-11-22T07:25:23;6.25;;;5.65;;
32808;SDS011;19159;48.178;16.386;2023-11-22T07:27:50;8.20;;;6.47;;
32808;SDS011;19159;48.178;16.386;2023-11-22T07:30:16;7.80;;;5.82;;
32808;SDS011;19159;48.178;16.386;2023-11-22T07:32:45;9.48;;;5.45;;
32808;SDS011;19159;48.178;16.386;2023-11-22T07:35:10;6.63;;;5.40;;
32808;SDS011;19159;48.178;16.386;2023-11-22T07:37:40;8.57;;;5.60;;
32808;SDS011;19159;48.178;16.386;2023-11-22T07:40:09;10.55;;;6.10;;
32808;SDS011;19159;48.178;16.386;2023-11-22T07:42:36;6.97;;;5.60;;
32808;SDS011;19159;48.178;16.386;2023-11-22T07:45:02;8.40;;;6.07;;
32808;SDS011;19159;48.178;16.386;2023-11-22T07:48:17;8.32;;;6.22;;
32808;SDS011;19159;48.178;16.386;2023-11-22T07:50:50;7.28;;;6.13;;
32808;SDS011;19159;48.178;16.386;2023-11-22T07:53:25;7.85;;;6.10;;
32808;SDS011;19159;48.178;16.386;2023-11-22T07:55:56;7.75;;;5.93;;
32808;SDS011;19159;48.178;16.386;2023-11-22T07:58:36;7.68;;;5.60;;
32808;SDS011;19159;48.178;16.386;2023-11-22T08:01:05;7.07;;;5.32;;
32808;SDS011;19159;48.178;16.386;2023-11-22T08:03:43;7.53;;;5.50;;
32808;SDS011;19159;48.178;16.386;2023-11-22T08:06:39;6.93;;;5.50;;
32808;SDS011;19159;48.178;16.386;2023-11-22T08:09:14;7.07;;;5.20;;
32808;SDS011;19159;48.178;16.386;2023-11-22T08:11:54;7.45;;;5.35;;
32808;SDS011;19159;48.178;16.386;2023-11-22T08:14:28;6.85;;;5.43;;
32808;SDS011;19159;48.178;16.386;2023-11-22T08:17:23;6.18;;;5.30;;
32808;SDS011;19159;48.178;16.386;2023-11-22T08:19:52;5.97;;;5.38;;
32808;SDS011;19159;48.178;16.386;2023-11-22T08:22:30;6.53;;;5.40;;
32808;SDS011;19159;48.178;16.386;2023-11-22T08:25:14;6.28;;;4.70;;
32808;SDS011;19159;48.178;16.386;2023-11-22T08:30:32;8.27;;;5.32;;
32808;SDS011;19159;48.178;16.386;2023-11-22T08:33:09;6.93;;;5.70;;
32808;SDS011;19159;48.178;16.386;2023-11-22T08:35:49;5.40;;;4.85;;
32808;SDS011;19159;48.178;16.386;2023-11-22T08:38:16;6.57;;;5.55;;
32808;SDS011;19159;48.178;16.386;2023-11-22T08:40:55;6.35;;;5.47;;
32808;SDS011;19159;48.178;16.386;2023-11-22T08:43:49;6.93;;;5.60;;
32808;SDS011;19159;48.178;16.386;2023-11-22T08:49:48;8.68;;;5.30;;
32808;SDS011;19159;48.178;16.386;2023-11-22T08:52:38;5.50;;;5.00;;
32808;SDS011;19159;48.178;16.386;2023-11-22T08:55:19;8.15;;;5.75;;
32808;SDS011;19159;48.178;16.386;2023-11-22T08:57:47;6.32;;;5.35;;
32808;SDS011;19159;48.178;16.386;2023-11-22T09:00:16;6.65;;;5.57;;
32808;SDS011;19159;48.178;16.386;2023-11-22T09:02:50;6.38;;;5.70;;
32808;SDS011;19159;48.178;16.386;2023-11-22T09:05:16;7.63;;;6.45;;
32808;SDS011;19159;48.178;16.386;2023-11-22T09:07:44;7.43;;;6.38;;
32808;SDS011;19159;48.178;16.386;2023-11-22T09:10:20;7.32;;;6.60;;
32808;SDS011;19159;48.178;16.386;2023-11-22T09:12:47;8.30;;;6.72;;
32808;SDS011;19159;48.178;16.386;2023-11-22T09:18:37;7.47;;;6.20;;
32808;SDS011;19159;48.178;16.386;2023-11-22T09:21:03;10.43;;;6.00;;
32808;SDS011;19159;48.178;16.386;2023-11-22T09:23:29;7.57;;;5.88;;
32808;SDS011;19159;48.178;16.386;2023-11-22T09:25:55;7.03;;;6.05;;
32808;SDS011;19159;48.178;16.386;2023-11-22T09:28:21;8.38;;;5.90;;
32808;SDS011;19159;48.178;16.386;2023-11-22T09:30:47;7.00;;;5.78;;
32808;SDS011;19159;48.178;16.386;2023-11-22T09:33:16;6.72;;;5.60;;
32808;SDS011;19159;48.178;16.386;2023-11-22T09:35:42;6.35;;;5.72;;
32808;SDS011;19159;48.178;16.386;2023-11-22T09:38:09;7.47;;;6.07;;
32808;SDS011;19159;48.178;16.386;2023-11-22T09:40:43;6.20;;;5.55;;
32808;SDS011;19159;48.178;16.386;2023-11-22T09:43:10;8.20;;;6.32;;
32808;SDS011;19159;48.178;16.386;2023-11-22T09:45:36;7.70;;;6.32;;
32808;SDS011;19159;48.178;16.386;2023-11-22T09:48:10;7.72;;;6.00;;
32808;SDS011;19159;48.178;16.386;2023-11-22T09:53:50;7.25;;;6.07;;
32808;SDS011;19159;48.178;16.386;2023-11-22T09:56:18;6.50;;;5.78;;
32808;SDS011;19159;48.178;16.386;2023-11-22T09:58:44;6.32;;;5.50;;
32808;SDS011;19159;48.178;16.386;2023-11-22T10:01:11;8.63;;;5.60;;
32808;SDS011;19159;48.178;16.386;2023-11-22T10:03:38;8.25;;;5.90;;
32808;SDS011;19159;48.178;16.386;2023-11-22T10:06:04;8.20;;;6.22;;
32808;SDS011;19159;48.178;16.386;2023-11-22T10:08:32;7.63;;;6.13;;
32808;SDS011;19159;48.178;16.386;2023-11-22T10:10:58;5.68;;;5.00;;
32808;SDS011;19159;48.178;16.386;2023-11-22T10:13:24;6.72;;;5.25;;
32808;SDS011;19159;48.178;16.386;2023-11-22T10:15:51;9.77;;;6.35;;
32808;SDS011;19159;48.178;16.386;2023-11-22T10:18:17;9.05;;;5.97;;
32808;SDS011;19159;48.178;16.386;2023-11-22T10:20:44;6.60;;;5.70;;
32808;SDS011;19159;48.178;16.386;2023-11-22T10:23:12;7.40;;;6.38;;
32808;SDS011;19159;48.178;16.386;2023-11-22T10:25:49;7.72;;;5.85;;
32808;SDS011;19159;48.178;16.386;2023-11-22T10:28:17;6.05;;;5.15;;
32808;SDS011;19159;48.178;16.386;2023-11-22T10:30:46;5.82;;;5.22;;
32808;SDS011;19159;48.178;16.386;2023-11-22T10:33:13;8.57;;;5.53;;
32808;SDS011;19159;48.178;16.386;2023-11-22T10:35:49;9.32;;;5.50;;
32808;SDS011;19159;48.178;16.386;2023-11-22T10:38:16;6.22;;;5.43;;
32808;SDS011;19159;48.178;16.386;2023-11-22T10:40:43;6.45;;;5.63;;
32808;SDS011;19159;48.178;16.386;2023-11-22T10:43:16;8.00;;;5.10;;
32808;SDS011;19159;48.178;16.386;2023-11-22T10:45:42;6.82;;;5.78;;
32808;SDS011;19159;48.178;16.386;2023-11-22T10:48:13;6.68;;;5.82;;
32808;SDS011;19159;48.178;16.386;2023-11-22T10:50:46;6.85;;;6.10;;
32808;SDS011;19159;48.178;16.386;2023-11-22T10:53:13;8.55;;;6.03;;
32808;SDS011;19159;48.178;16.386;2023-11-22T10:55:42;6.15;;;5.28;;
32808;SDS011;19159;48.178;16.386;2023-11-22T10:58:14;9.32;;;5.75;;
32808;SDS011;19159;48.178;16.386;2023-11-22T11:00:41;7.00;;;6.07;;
32808;SDS011;19159;48.178;16.386;2023-11-22T11:03:11;7.15;;;6.45;;
32808;SDS011;19159;48.178;16.386;2023-11-22T11:05:44;7.22;;;6.28;;
32808;SDS011;19159;48.178;16.386;2023-11-22T11:08:19;6.90;;;6.22;;
32808;SDS011;19159;48.178;16.386;2023-11-22T11:10:49;7.38;;;6.03;;
32808;SDS011;19159;48.178;16.386;2023-11-22T11:13:15;7.07;;;6.38;;
32808;SDS011;19159;48.178;16.386;2023-11-22T11:15:42;5.90;;;5.30;;
32808;SDS011;19159;48.178;16.386;2023-11-22T11:18:09;6.70;;;6.00;;
32808;SDS011;19159;48.178;16.386;2023-11-22T11:20:51;6.63;;;5.90;;
32808;SDS011;19159;48.178;16.386;2023-11-22T11:23:25;6.55;;;5.95;;
32808;SDS011;19159;48.178;16.386;2023-11-22T11:25:52;6.80;;;6.10;;
32808;SDS011;19159;48.178;16.386;2023-11-22T11:28:19;7.10;;;6.00;;
32808;SDS011;19159;48.178;16.386;2023-11-22T11:33:52;6.88;;;6.18;;
32808;SDS011;19159;48.178;16.386;2023-11-22T11:36:26;7.20;;;6.15;;
32808;SDS011;19159;48.178;16.386;2023-11-22T11:38:58;7.70;;;6.90;;
32808;SDS011;19159;48.178;16.386;2023-11-22T11:41:29;9.30;;;6.88;;
32808;SDS011;19159;48.178;16.386;2023-11-22T11:44:03;7.80;;;7.03;;
32808;SDS011;19159;48.178;16.386;2023-11-22T11:46:32;7.85;;;7.05;;
32808;SDS011;19159;48.178;16.386;2023-11-22T11:48:58;7.82;;;7.03;;
32808;SDS011;19159;48.178;16.386;2023-11-22T11:51:24;7.78;;;6.97;;
32808;SDS011;19159;48.178;16.386;2023-11-22T11:53:54;8.10;;;7.30;;
32808;SDS011;19159;48.178;16.386;2023-11-22T11:56:20;8.10;;;7.30;;
32808;SDS011;19159;48.178;16.386;2023-11-22T11:58:47;8.02;;;7.22;;
32808;SDS011;19159;48.178;16.386;2023-11-22T12:01:14;8.63;;;7.72;;
32808;SDS011;19159;48.178;16.386;2023-11-22T12:03:41;8.70;;;7.80;;
32808;SDS011;19159;48.178;16.386;2023-11-22T12:06:08;9.38;;;7.97;;
32808;SDS011;19159;48.178;16.386;2023-11-22T12:08:34;10.05;;;8.85;;
32808;SDS011;19159;48.178;16.386;2023-11-22T12:11:03;8.95;;;8.05;;
32808;SDS011;19159;48.178;16.386;2023-11-22T12:13:30;8.70;;;7.90;;
32808;SDS011;19159;48.178;16.386;2023-11-22T12:15:56;7.93;;;7.13;;
32808;SDS011;19159;48.178;16.386;2023-11-22T12:18:22;8.15;;;7.32;;
32808;SDS011;19159;48.178;16.386;2023-11-22T12:20:55;12.70;;;8.07;;
32808;SDS011;19159;48.178;16.386;2023-11-22T12:23:22;8.82;;;7.93;;
32808;SDS011;19159;48.178;16.386;2023-11-22T12:25:53;8.90;;;8.00;;
32808;SDS011;19159;48.178;16.386;2023-11-22T12:28:21;8.85;;;7.95;;
32808;SDS011;19159;48.178;16.386;2023-11-22T12:30:54;9.45;;;8.48;;
32808;SDS011;19159;48.178;16.386;2023-11-22T12:33:20;10.18;;;8.95;;
32808;SDS011;19159;48.178;16.386;2023-11-22T12:35:46;10.30;;;9.13;;
32808;SDS011;19159;48.178;16.386;2023-11-22T12:38:13;11.20;;;9.68;;
32808;SDS011;19159;48.178;16.386;2023-11-22T12:40:45;11.95;;;9.93;;
32808;SDS011;19159;48.178;16.386;2023-11-22T12:43:14;11.52;;;10.15;;
32808;SDS011;19159;48.178;16.386;2023-11-22T12:45:40;10.70;;;9.60;;
32808;SDS011;19159;48.178;16.386;2023-11-22T12:48:19;11.40;;;10.20;;
32808;SDS011;19159;48.178;16.386;2023-11-22T12:50:49;11.00;;;9.80;;
32808;SDS011;19159;48.178;16.386;2023-11-22T12:53:15;10.02;;;8.88;;
32808;SDS011;19159;48.178;16.386;2023-11-22T12:55:41;10.40;;;9.40;;
32808;SDS011;19159;48.178;16.386;2023-11-22T12:58:12;11.23;;;9.93;;
32808;SDS011;19159;48.178;16.386;2023-11-22T13:00:39;10.95;;;9.57;;
32808;SDS011;19159;48.178;16.386;2023-11-22T13:03:08;18.67;;;10.00;;
32808;SDS011;19159;48.178;16.386;2023-11-22T13:05:40;11.77;;;10.57;;
32808;SDS011;19159;48.178;16.386;2023-11-22T13:08:10;12.00;;;10.80;;
32808;SDS011;19159;48.178;16.386;2023-11-22T13:10:38;11.32;;;10.10;;
32808;SDS011;19159;48.178;16.386;2023-11-22T13:13:19;14.35;;;10.80;;
32808;SDS011;19159;48.178;16.386;2023-11-22T13:15:45;12.45;;;10.93;;
32808;SDS011;19159;48.178;16.386;2023-11-22T13:18:11;12.35;;;11.00;;
32808;SDS011;19159;48.178;16.386;2023-11-22T13:20:37;15.95;;;11.63;;
32808;SDS011;19159;48.178;16.386;2023-11-22T13:23:05;13.65;;;11.05;;
32808;SDS011;19159;48.178;16.386;2023-11-22T13:25:32;10.80;;;9.68;;
32808;SDS011;19159;48.178;16.386;2023-11-22T13:27:58;13.20;;;9.80;;
32808;SDS011;19159;48.178;16.386;2023-11-22T13:30:24;11.48;;;10.20;;
32808;SDS011;19159;48.178;16.386;2023-11-22T13:32:50;10.82;;;9.73;;
32808;SDS011;19159;48.178;16.386;2023-11-22T13:35:21;16.20;;;10.60;;
32808;SDS011;19159;48.178;16.386;2023-11-22T13:37:47;11.30;;;10.10;;
32808;SDS011;19159;48.178;16.386;2023-11-22T13:40:17;11.40;;;9.73;;
32808;SDS011;19159;48.178;16.386;2023-11-22T13:42:47;10.82;;;9.73;;
32808;SDS011;19159;48.178;16.386;2023-11-22T13:45:15;11.50;;;10.02;;
32808;SDS011;19159;48.178;16.386;2023-11-22T13:47:45;12.20;;;10.13;;
32808;SDS011;19159;48.178;16.386;2023-11-22T13:50:15;11.02;;;9.98;;
32808;SDS011;19159;48.178;16.386;2023-11-22T13:52:53;11.30;;;10.10;;
32808;SDS011;19159;48.178;16.386;2023-11-22T13:55:21;11.45;;;10.13;;
32808;SDS011;19159;48.178;16.386;2023-11-22T13:57:50;17.17;;;10.20;;
32808;SDS011;19159;48.178;16.386;2023-11-22T14:00:23;12.35;;;10.98;;
32808;SDS011;19159;48.178;16.386;2023-11-22T14:02:53;11.15;;;10.13;;
32808;SDS011;19159;48.178;16.386;2023-11-22T14:05:29;11.73;;;10.52;;
32808;SDS011;19159;48.178;16.386;2023-11-22T14:07:55;11.10;;;10.00;;
32808;SDS011;19159;48.178;16.386;2023-11-22T14:10:21;11.40;;;10.23;;
32808;SDS011;19159;48.178;16.386;2023-11-22T14:12:47;12.35;;;10.52;;
32808;SDS011;19159;48.178;16.386;2023-11-22T14:15:17;10.95;;;9.85;;
32808;SDS011;19159;48.178;16.386;2023-11-22T14:17:44;11.77;;;10.32;;
32808;SDS011;19159;48.178;16.386;2023-11-22T14:20:10;11.80;;;10.55;;
32808;SDS011;19159;48.178;16.386;2023-11-22T14:22:37;10.98;;;9.85;;
32808;SDS011;19159;48.178;16.386;2023-11-22T14:25:04;12.40;;;11.10;;
32808;SDS011;19159;48.178;16.386;2023-11-22T14:27:36;11.43;;;10.25;;
32808;SDS011;19159;48.178;16.386;2023-11-22T14:30:06;12.02;;;10.15;;
32808;SDS011;19159;48.178;16.386;2023-11-22T14:32:33;11.23;;;10.13;;
32808;SDS011;19159;48.178;16.386;2023-11-22T14:35:00;11.13;;;9.95;;
32808;SDS011;19159;48.178;16.386;2023-11-22T14:37:29;12.88;;;10.93;;
32808;SDS011;19159;48.178;16.386;2023-11-22T14:39:55;13.05;;;10.48;;
32808;SDS011;19159;48.178;16.386;2023-11-22T14:42:21;13.80;;;9.75;;
32808;SDS011;19159;48.178;16.386;2023-11-22T14:44:48;11.25;;;10.05;;
32808;SDS011;19159;48.178;16.386;2023-11-22T14:47:13;11.57;;;10.38;;
32808;SDS011;19159;48.178;16.386;2023-11-22T14:49:44;10.88;;;9.68;;